sensor_id;sensor_type;location;lat;lon;timestamp;pressure;altitude;pressure_sealevel;temperature;humidity
64066;BME280;50318;54.760;9.408;2022-09-09T00:01:31;100359.03;;;19.75;69.50
64066;BME280;50318;54.760;9.408;2022-09-09T00:04:23;100366.34;;;19.78;69.38
64066;BME280;50318;54.760;9.408;2022-09-09T00:07:01;100358.53;;;19.76;69.33
64066;BME280;50318;54.760;9.408;2022-09-09T00:09:32;100350.91;;;19.77;69.10
64066;BME280;50318;54.760;9.408;2022-09-09T00:12:12;100347.91;;;19.75;69.22
64066;BME280;50318;54.760;9.408;2022-09-09T00:15:02;100347.44;;;19.71;69.39
64066;BME280;50318;54.760;9.408;2022-09-09T00:17:46;100347.16;;;19.74;69.53
64066;BME280;50318;54.760;9.408;2022-09-09T00:22:44;100354.28;;;19.70;69.68
64066;BME280;50318;54.760;9.408;2022-09-09T00:25:27;100350.75;;;19.69;69.37
64066;BME280;50318;54.760;9.408;2022-09-09T00:27:54;100345.19;;;19.69;69.49
64066;BME280;50318;54.760;9.408;2022-09-09T00:30:25;100352.94;;;19.76;69.61
64066;BME280;50318;54.760;9.408;2022-09-09T00:32:59;100346.19;;;19.72;69.39
64066;BME280;50318;54.760;9.408;2022-09-09T00:35:31;100353.25;;;19.73;69.53
64066;BME280;50318;54.760;9.408;2022-09-09T00:38:10;100341.38;;;19.72;69.82
64066;BME280;50318;54.760;9.408;2022-09-09T00:40:49;100346.41;;;19.74;69.72
64066;BME280;50318;54.760;9.408;2022-09-09T00:56:58;100355.66;;;19.82;69.32
64066;BME280;50318;54.760;9.408;2022-09-09T00:59:39;100345.81;;;19.81;69.15
64066;BME280;50318;54.760;9.408;2022-09-09T01:04:47;100341.47;;;19.85;69.21
64066;BME280;50318;54.760;9.408;2022-09-09T01:07:17;100347.28;;;19.87;69.32
64066;BME280;50318;54.760;9.408;2022-09-09T01:09:57;100336.16;;;19.87;69.15
64066;BME280;50318;54.760;9.408;2022-09-09T01:12:38;100342.22;;;19.86;69.07
64066;BME280;50318;54.760;9.408;2022-09-09T01:21:27;100351.56;;;19.88;69.10
64066;BME280;50318;54.760;9.408;2022-09-09T01:26:58;100345.75;;;19.86;69.23
64066;BME280;50318;54.760;9.408;2022-09-09T01:29:26;100338.44;;;19.83;69.22
64066;BME280;50318;54.760;9.408;2022-09-09T01:31:55;100338.94;;;19.87;69.31
64066;BME280;50318;54.760;9.408;2022-09-09T01:34:23;100333.88;;;19.86;69.17
64066;BME280;50318;54.760;9.408;2022-09-09T01:37:08;100335.88;;;19.85;69.27
64066;BME280;50318;54.760;9.408;2022-09-09T01:39:37;100339.44;;;19.86;69.37
64066;BME280;50318;54.760;9.408;2022-09-09T01:42:09;100344.75;;;19.84;69.20
64066;BME280;50318;54.760;9.408;2022-09-09T01:44:37;100332.13;;;19.83;69.12
64066;BME280;50318;54.760;9.408;2022-09-09T01:47:04;100345.75;;;19.86;69.27
64066;BME280;50318;54.760;9.408;2022-09-09T01:49:30;100340.47;;;19.83;69.20
64066;BME280;50318;54.760;9.408;2022-09-09T01:51:59;100335.13;;;19.85;69.27
64066;BME280;50318;54.760;9.408;2022-09-09T01:54:31;100342.22;;;19.86;69.30
64066;BME280;50318;54.760;9.408;2022-09-09T01:57:21;100343.44;;;19.90;69.35
64066;BME280;50318;54.760;9.408;2022-09-09T02:08:00;100341.34;;;19.97;69.20
64066;BME280;50318;54.760;9.408;2022-09-09T02:10:48;100340.59;;;19.96;69.04
64066;BME280;50318;54.760;9.408;2022-09-09T02:13:29;100345.09;;;19.99;69.05
64066;BME280;50318;54.760;9.408;2022-09-09T02:16:10;100343.59;;;19.98;68.92
64066;BME280;50318;54.760;9.408;2022-09-09T02:22:12;100338.78;;;19.99;69.11
64066;BME280;50318;54.760;9.408;2022-09-09T02:24:39;100336.53;;;19.97;69.08
64066;BME280;50318;54.760;9.408;2022-09-09T02:27:20;100330.50;;;19.93;69.28
64066;BME280;50318;54.760;9.408;2022-09-09T02:29:55;100335.25;;;19.98;69.36
64066;BME280;50318;54.760;9.408;2022-09-09T02:32:35;100335.03;;;19.96;69.32
64066;BME280;50318;54.760;9.408;2022-09-09T02:35:09;100342.09;;;19.97;69.53
64066;BME280;50318;54.760;9.408;2022-09-09T02:37:40;100335.03;;;19.96;69.33
64066;BME280;50318;54.760;9.408;2022-09-09T02:40:09;100335.78;;;19.97;69.42
64066;BME280;50318;54.760;9.408;2022-09-09T02:42:40;100331.19;;;19.99;69.43
64066;BME280;50318;54.760;9.408;2022-09-09T02:45:07;100318.56;;;19.98;69.59
64066;BME280;50318;54.760;9.408;2022-09-09T02:47:41;100332.41;;;20.04;69.43
64066;BME280;50318;54.760;9.408;2022-09-09T02:55:41;100329.53;;;20.09;69.55
64066;BME280;50318;54.760;9.408;2022-09-09T02:58:13;100329.78;;;20.11;69.46
64066;BME280;50318;54.760;9.408;2022-09-09T03:00:48;100335.59;;;20.13;68.98
64066;BME280;50318;54.760;9.408;2022-09-09T03:03:15;100320.38;;;20.14;69.21
64066;BME280;50318;54.760;9.408;2022-09-09T03:05:46;100323.69;;;20.13;69.48
64066;BME280;50318;54.760;9.408;2022-09-09T03:08:12;100324.69;;;20.15;69.21
64066;BME280;50318;54.760;9.408;2022-09-09T03:10:38;100323.16;;;20.14;69.48
64066;BME280;50318;54.760;9.408;2022-09-09T03:13:05;100332.50;;;20.17;69.48
64066;BME280;50318;54.760;9.408;2022-09-09T03:15:33;100319.09;;;20.15;69.40
64066;BME280;50318;54.760;9.408;2022-09-09T03:18:02;100317.38;;;20.12;69.20
64066;BME280;50318;54.760;9.408;2022-09-09T03:20:49;100318.34;;;20.15;69.18
64066;BME280;50318;54.760;9.408;2022-09-09T03:23:15;100320.31;;;20.20;69.17
64066;BME280;50318;54.760;9.408;2022-09-09T03:25:47;100331.44;;;20.20;69.38
64066;BME280;50318;54.760;9.408;2022-09-09T03:28:14;100320.28;;;20.01;69.51
64066;BME280;50318;54.760;9.408;2022-09-09T03:30:43;100329.00;;;19.92;69.51
64066;BME280;50318;54.760;9.408;2022-09-09T03:33:09;100327.63;;;19.80;69.78
64066;BME280;50318;54.760;9.408;2022-09-09T03:35:35;100322.19;;;19.69;70.23
64066;BME280;50318;54.760;9.408;2022-09-09T03:38:01;100324.00;;;19.60;70.36
64066;BME280;50318;54.760;9.408;2022-09-09T03:40:29;100326.59;;;19.53;70.77
64066;BME280;50318;54.760;9.408;2022-09-09T03:42:56;100326.44;;;19.45;71.07
64066;BME280;50318;54.760;9.408;2022-09-09T03:45:24;100333.03;;;19.42;71.48
64066;BME280;50318;54.760;9.408;2022-09-09T03:47:50;100325.47;;;19.37;71.54
64066;BME280;50318;54.760;9.408;2022-09-09T03:50:16;100332.38;;;19.30;71.98
64066;BME280;50318;54.760;9.408;2022-09-09T03:52:44;100335.44;;;19.27;72.20
64066;BME280;50318;54.760;9.408;2022-09-09T03:55:48;100332.94;;;19.23;72.46
64066;BME280;50318;54.760;9.408;2022-09-09T03:58:14;100326.69;;;19.17;72.57
64066;BME280;50318;54.760;9.408;2022-09-09T04:00:40;100332.19;;;19.23;72.95
64066;BME280;50318;54.760;9.408;2022-09-09T04:03:11;100336.50;;;19.24;73.20
64066;BME280;50318;54.760;9.408;2022-09-09T04:05:39;100339.28;;;19.24;73.10
64066;BME280;50318;54.760;9.408;2022-09-09T04:08:10;100330.47;;;19.20;73.23
64066;BME280;50318;54.760;9.408;2022-09-09T04:10:37;100332.19;;;19.23;73.13
64066;BME280;50318;54.760;9.408;2022-09-09T04:13:04;100335.22;;;19.25;73.38
64066;BME280;50318;54.760;9.408;2022-09-09T04:15:30;100330.47;;;19.20;73.39
64066;BME280;50318;54.760;9.408;2022-09-09T04:17:56;100337.00;;;19.22;73.29
64066;BME280;50318;54.760;9.408;2022-09-09T04:20:26;100336.53;;;19.18;73.58
64066;BME280;50318;54.760;9.408;2022-09-09T04:22:51;100336.53;;;19.18;73.75
64066;BME280;50318;54.760;9.408;2022-09-09T04:25:17;100345.13;;;19.20;73.83
64066;BME280;50318;54.760;9.408;2022-09-09T04:27:43;100345.88;;;19.21;73.81
64066;BME280;50318;54.760;9.408;2022-09-09T04:30:09;100343.09;;;19.21;73.74
64066;BME280;50318;54.760;9.408;2022-09-09T04:32:59;100341.34;;;19.18;73.57
64066;BME280;50318;54.760;9.408;2022-09-09T04:35:25;100349.69;;;19.18;73.77
64066;BME280;50318;54.760;9.408;2022-09-09T04:37:53;100341.88;;;19.11;73.71
64066;BME280;50318;54.760;9.408;2022-09-09T04:40:18;100348.22;;;19.11;74.03
64066;BME280;50318;54.760;9.408;2022-09-09T04:42:45;100353.47;;;19.15;73.93
64066;BME280;50318;54.760;9.408;2022-09-09T04:45:13;100344.44;;;19.09;73.92
64066;BME280;50318;54.760;9.408;2022-09-09T04:47:40;100350.69;;;19.15;73.85
64066;BME280;50318;54.760;9.408;2022-09-09T04:50:07;100363.81;;;19.20;74.03
64066;BME280;50318;54.760;9.408;2022-09-09T04:52:37;100357.78;;;19.16;73.91
64066;BME280;50318;54.760;9.408;2022-09-09T04:55:03;100358.03;;;19.18;73.78
64066;BME280;50318;54.760;9.408;2022-09-09T04:57:29;100355.00;;;19.16;74.02
64066;BME280;50318;54.760;9.408;2022-09-09T04:59:58;100360.31;;;19.14;74.09
64066;BME280;50318;54.760;9.408;2022-09-09T05:02:26;100361.81;;;19.15;73.85
64066;BME280;50318;54.760;9.408;2022-09-09T05:04:52;100367.66;;;19.17;73.78
64066;BME280;50318;54.760;9.408;2022-09-09T05:07:18;100368.13;;;19.15;73.68
64066;BME280;50318;54.760;9.408;2022-09-09T05:09:44;100366.69;;;19.09;73.83
64066;BME280;50318;54.760;9.408;2022-09-09T05:12:11;100358.34;;;19.09;73.84
64066;BME280;50318;54.760;9.408;2022-09-09T05:14:42;100370.97;;;19.10;73.48
64066;BME280;50318;54.760;9.408;2022-09-09T05:17:08;100360.41;;;19.02;73.51
64066;BME280;50318;54.760;9.408;2022-09-09T05:19:36;100360.22;;;18.95;73.52
64066;BME280;50318;54.760;9.408;2022-09-09T05:22:05;100365.72;;;19.00;73.63
64066;BME280;50318;54.760;9.408;2022-09-09T05:24:38;100368.03;;;18.96;73.54
64066;BME280;50318;54.760;9.408;2022-09-09T05:27:06;100358.72;;;18.94;73.61
64066;BME280;50318;54.760;9.408;2022-09-09T05:29:32;100357.69;;;18.91;73.65
64066;BME280;50318;54.760;9.408;2022-09-09T05:32:03;100372.88;;;18.90;73.61
64066;BME280;50318;54.760;9.408;2022-09-09T05:34:29;100372.63;;;18.88;73.78
64066;BME280;50318;54.760;9.408;2022-09-09T05:36:55;100379.22;;;18.85;73.71
64066;BME280;50318;54.760;9.408;2022-09-09T05:39:22;100370.66;;;18.83;73.80
64066;BME280;50318;54.760;9.408;2022-09-09T05:42:02;100378.97;;;18.83;73.71
64066;BME280;50318;54.760;9.408;2022-09-09T05:44:33;100381.75;;;18.83;73.52
64066;BME280;50318;54.760;9.408;2022-09-09T05:47:00;100389.38;;;18.77;73.73
64066;BME280;50318;54.760;9.408;2022-09-09T05:49:25;100389.91;;;18.76;73.72
64066;BME280;50318;54.760;9.408;2022-09-09T05:51:51;100395.19;;;18.79;73.72
64066;BME280;50318;54.760;9.408;2022-09-09T05:54:19;100392.94;;;18.72;73.79
64066;BME280;50318;54.760;9.408;2022-09-09T05:56:48;100403.56;;;18.74;73.59
64066;BME280;50318;54.760;9.408;2022-09-09T05:59:18;100408.13;;;18.71;73.98
64066;BME280;50318;54.760;9.408;2022-09-09T06:01:44;100408.34;;;18.73;73.83
64066;BME280;50318;54.760;9.408;2022-09-09T06:04:18;100405.06;;;18.69;73.85
64066;BME280;50318;54.760;9.408;2022-09-09T06:06:46;100416.69;;;18.73;74.25
64066;BME280;50318;54.760;9.408;2022-09-09T06:09:15;100412.41;;;18.72;73.88
64066;BME280;50318;54.760;9.408;2022-09-09T06:11:42;100411.38;;;18.75;73.96
64066;BME280;50318;54.760;9.408;2022-09-09T06:14:09;100414.88;;;18.81;74.35
64066;BME280;50318;54.760;9.408;2022-09-09T06:16:36;100414.88;;;18.81;74.47
64066;BME280;50318;54.760;9.408;2022-09-09T06:19:05;100419.66;;;18.81;74.19
64066;BME280;50318;54.760;9.408;2022-09-09T06:21:33;100420.44;;;18.81;74.26
64066;BME280;50318;54.760;9.408;2022-09-09T06:24:08;100426.22;;;18.83;74.04
64066;BME280;50318;54.760;9.408;2022-09-09T06:26:40;100432.53;;;18.84;74.01
64066;BME280;50318;54.760;9.408;2022-09-09T06:29:07;100426.72;;;18.82;73.86
64066;BME280;50318;54.760;9.408;2022-09-09T06:31:35;100427.50;;;18.82;73.84
64066;BME280;50318;54.760;9.408;2022-09-09T06:34:21;100422.97;;;18.79;73.69
64066;BME280;50318;54.760;9.408;2022-09-09T06:36:51;100417.66;;;18.81;74.17
64066;BME280;50318;54.760;9.408;2022-09-09T06:39:17;100420.16;;;18.85;74.00
64066;BME280;50318;54.760;9.408;2022-09-09T06:41:44;100417.88;;;18.83;74.10
64066;BME280;50318;54.760;9.408;2022-09-09T06:44:30;100427.97;;;18.86;73.84
64066;BME280;50318;54.760;9.408;2022-09-09T06:46:57;100433.53;;;18.86;73.90
64066;BME280;50318;54.760;9.408;2022-09-09T06:49:22;100435.50;;;18.91;73.94
64066;BME280;50318;54.760;9.408;2022-09-09T06:51:48;100435.28;;;18.89;73.74
64066;BME280;50318;54.760;9.408;2022-09-09T06:54:15;100427.44;;;18.88;73.97
64066;BME280;50318;54.760;9.408;2022-09-09T06:56:43;100430.47;;;18.95;73.92
64066;BME280;50318;54.760;9.408;2022-09-09T06:59:16;100437.25;;;19.00;73.67
64066;BME280;50318;54.760;9.408;2022-09-09T07:01:44;100442.28;;;19.01;73.34
64066;BME280;50318;54.760;9.408;2022-09-09T07:04:12;100442.28;;;19.01;73.60
64066;BME280;50318;54.760;9.408;2022-09-09T07:06:43;100430.69;;;18.97;73.70
64066;BME280;50318;54.760;9.408;2022-09-09T07:09:13;100446.28;;;19.06;74.26
64066;BME280;50318;54.760;9.408;2022-09-09T07:11:49;100447.28;;;19.09;73.61
64066;BME280;50318;54.760;9.408;2022-09-09T07:14:18;100447.81;;;19.07;73.42
64066;BME280;50318;54.760;9.408;2022-09-09T07:16:47;100443.00;;;19.08;73.64
64066;BME280;50318;54.760;9.408;2022-09-09T07:19:15;100463.69;;;19.18;73.56
64066;BME280;50318;54.760;9.408;2022-09-09T07:21:44;100446.72;;;19.16;73.60
64066;BME280;50318;54.760;9.408;2022-09-09T07:24:13;100461.13;;;19.20;73.58
64066;BME280;50318;54.760;9.408;2022-09-09T07:26:41;100462.66;;;19.15;73.16
64066;BME280;50318;54.760;9.408;2022-09-09T07:29:07;100449.50;;;19.16;73.35
64066;BME280;50318;54.760;9.408;2022-09-09T07:31:36;100462.41;;;19.19;73.45
64066;BME280;50318;54.760;9.408;2022-09-09T07:34:05;100461.13;;;19.20;73.60
64066;BME280;50318;54.760;9.408;2022-09-09T07:36:37;100442.09;;;19.29;73.98
64066;BME280;50318;54.760;9.408;2022-09-09T07:39:12;100456.34;;;19.50;73.62
64066;BME280;50318;54.760;9.408;2022-09-09T07:41:43;100476.19;;;19.71;73.31
64066;BME280;50318;54.760;9.408;2022-09-09T07:44:13;100468.56;;;19.77;72.59
64066;BME280;50318;54.760;9.408;2022-09-09T07:46:41;100473.28;;;19.88;72.37
64066;BME280;50318;54.760;9.408;2022-09-09T07:49:09;100482.31;;;19.94;71.95
64066;BME280;50318;54.760;9.408;2022-09-09T07:51:38;100477.50;;;19.95;71.92
64066;BME280;50318;54.760;9.408;2022-09-09T07:54:10;100488.97;;;19.85;71.22
64066;BME280;50318;54.760;9.408;2022-09-09T07:56:39;100487.03;;;19.75;71.40
64066;BME280;50318;54.760;9.408;2022-09-09T07:59:06;100480.25;;;19.70;71.55
64066;BME280;50318;54.760;9.408;2022-09-09T08:01:56;100469.41;;;19.67;71.87
64066;BME280;50318;54.760;9.408;2022-09-09T08:04:24;100482.34;;;19.64;71.81
64066;BME280;50318;54.760;9.408;2022-09-09T08:06:57;100474.75;;;19.65;72.46
64066;BME280;50318;54.760;9.408;2022-09-09T08:09:25;100474.97;;;19.67;72.15
64066;BME280;50318;54.760;9.408;2022-09-09T08:11:57;100475.44;;;19.71;72.66
64066;BME280;50318;54.760;9.408;2022-09-09T08:14:24;100480.22;;;19.76;72.91
64066;BME280;50318;54.760;9.408;2022-09-09T08:16:50;100474.41;;;19.74;72.63
64066;BME280;50318;54.760;9.408;2022-09-09T08:19:19;100479.16;;;19.79;72.92
64066;BME280;50318;54.760;9.408;2022-09-09T08:21:46;100474.28;;;19.85;72.24
64066;BME280;50318;54.760;9.408;2022-09-09T08:24:13;100479.88;;;19.85;72.07
64066;BME280;50318;54.760;9.408;2022-09-09T08:26:48;100483.47;;;19.80;71.78
64066;BME280;50318;54.760;9.408;2022-09-09T08:29:16;100492.03;;;19.82;72.06
64066;BME280;50318;54.760;9.408;2022-09-09T08:34:13;100483.97;;;19.78;72.16
64066;BME280;50318;54.760;9.408;2022-09-09T08:36:42;100498.66;;;19.79;72.15
64066;BME280;50318;54.760;9.408;2022-09-09T08:39:10;100505.72;;;19.80;72.41
64066;BME280;50318;54.760;9.408;2022-09-09T08:52:22;100515.16;;;19.71;72.77
64066;BME280;50318;54.760;9.408;2022-09-09T08:54:49;100513.88;;;19.72;73.07
64066;BME280;50318;54.760;9.408;2022-09-09T08:57:26;100506.53;;;19.75;72.94
64066;BME280;50318;54.760;9.408;2022-09-09T08:59:54;100500.16;;;19.80;73.17
64066;BME280;50318;54.760;9.408;2022-09-09T09:02:28;100515.50;;;19.92;73.45
64066;BME280;50318;54.760;9.408;2022-09-09T09:05:23;100517.72;;;19.99;73.26
64066;BME280;50318;54.760;9.408;2022-09-09T09:10:54;100514.53;;;20.14;73.24
64066;BME280;50318;54.760;9.408;2022-09-09T09:13:35;100517.84;;;20.37;74.32
64066;BME280;50318;54.760;9.408;2022-09-09T09:18:42;100522.84;;;20.68;73.00
64066;BME280;50318;54.760;9.408;2022-09-09T09:21:32;100515.63;;;20.78;72.06
64066;BME280;50318;54.760;9.408;2022-09-09T09:24:01;100525.06;;;20.94;71.77
64066;BME280;50318;54.760;9.408;2022-09-09T09:26:33;100525.44;;;21.04;72.08
64066;BME280;50318;54.760;9.408;2022-09-09T09:29:09;100524.41;;;21.07;70.52
64066;BME280;50318;54.760;9.408;2022-09-09T09:31:35;100519.09;;;21.03;70.22
64066;BME280;50318;54.760;9.408;2022-09-09T09:34:01;100511.03;;;21.00;70.81
64066;BME280;50318;54.760;9.408;2022-09-09T09:36:41;100523.56;;;21.12;70.76
64066;BME280;50318;54.760;9.408;2022-09-09T09:39:23;100521.63;;;21.26;71.15
64066;BME280;50318;54.760;9.408;2022-09-09T09:41:49;100525.78;;;21.38;71.42
64066;BME280;50318;54.760;9.408;2022-09-09T09:44:42;100520.53;;;21.48;70.36
64066;BME280;50318;54.760;9.408;2022-09-09T09:47:21;100517.59;;;21.59;70.68
64066;BME280;50318;54.760;9.408;2022-09-09T09:50:16;100522.78;;;21.68;70.91
64066;BME280;50318;54.760;9.408;2022-09-09T09:52:54;100516.81;;;21.77;70.67
64066;BME280;50318;54.760;9.408;2022-09-09T09:55:21;100518.81;;;21.76;70.69
64066;BME280;50318;54.760;9.408;2022-09-09T09:57:48;100519.88;;;21.73;70.27
64066;BME280;50318;54.760;9.408;2022-09-09T10:00:18;100525.84;;;21.83;70.12
64066;BME280;50318;54.760;9.408;2022-09-09T10:02:50;100521.22;;;21.86;70.40
64066;BME280;50318;54.760;9.408;2022-09-09T10:05:27;100522.00;;;21.99;69.82
64066;BME280;50318;54.760;9.408;2022-09-09T10:17:04;100534.53;;;22.12;69.44
64066;BME280;50318;54.760;9.408;2022-09-09T10:19:35;100528.41;;;22.13;69.10
64066;BME280;50318;54.760;9.408;2022-09-09T10:22:26;100530.34;;;22.18;69.92
64066;BME280;50318;54.760;9.408;2022-09-09T10:28:33;100542.75;;;22.49;70.90
64066;BME280;50318;54.760;9.408;2022-09-09T10:34:28;100534.56;;;22.64;69.12
64066;BME280;50318;54.760;9.408;2022-09-09T10:37:04;100535.63;;;22.61;68.24
64066;BME280;50318;54.760;9.408;2022-09-09T10:39:37;100533.91;;;22.58;67.92
64066;BME280;50318;54.760;9.408;2022-09-09T10:42:09;100535.53;;;22.54;68.11
64066;BME280;50318;54.760;9.408;2022-09-09T10:55:38;100541.22;;;22.61;70.10
64066;BME280;50318;54.760;9.408;2022-09-09T10:58:12;100537.47;;;22.72;69.67
64066;BME280;50318;54.760;9.408;2022-09-09T11:00:44;100542.09;;;22.83;69.63
64066;BME280;50318;54.760;9.408;2022-09-09T11:03:29;100539.94;;;22.89;69.59
64066;BME280;50318;54.760;9.408;2022-09-09T11:05:57;100555.41;;;23.03;69.01
64066;BME280;50318;54.760;9.408;2022-09-09T11:08:28;100544.38;;;23.18;69.68
64066;BME280;50318;54.760;9.408;2022-09-09T11:11:39;100553.34;;;23.51;68.61
64066;BME280;50318;54.760;9.408;2022-09-09T11:21:55;100545.34;;;23.68;64.97
64066;BME280;50318;54.760;9.408;2022-09-09T11:24:35;100544.16;;;23.64;66.03
64066;BME280;50318;54.760;9.408;2022-09-09T11:27:26;100543.75;;;23.60;66.14
64066;BME280;50318;54.760;9.408;2022-09-09T11:30:24;100551.09;;;23.49;65.79
64066;BME280;50318;54.760;9.408;2022-09-09T11:39:06;100555.28;;;23.09;67.15
64066;BME280;50318;54.760;9.408;2022-09-09T11:41:39;100552.50;;;23.09;67.76
64066;BME280;50318;54.760;9.408;2022-09-09T11:44:30;100560.34;;;23.10;66.13
64066;BME280;50318;54.760;9.408;2022-09-09T11:46:56;100559.50;;;23.02;66.03
64066;BME280;50318;54.760;9.408;2022-09-09T11:49:28;100559.50;;;23.02;65.84
64066;BME280;50318;54.760;9.408;2022-09-09T11:51:56;100560.25;;;23.03;67.07
64066;BME280;50318;54.760;9.408;2022-09-09T11:54:29;100565.53;;;23.06;67.29
64066;BME280;50318;54.760;9.408;2022-09-09T11:56:55;100564.22;;;23.07;67.52
64066;BME280;50318;54.760;9.408;2022-09-09T11:59:27;100563.34;;;23.12;66.65
64066;BME280;50318;54.760;9.408;2022-09-09T12:02:00;100564.53;;;23.17;66.04
64066;BME280;50318;54.760;9.408;2022-09-09T12:04:34;100554.06;;;23.17;65.99
64066;BME280;50318;54.760;9.408;2022-09-09T12:10:20;100566.69;;;23.24;65.40
64066;BME280;50318;54.760;9.408;2022-09-09T12:12:47;100554.53;;;23.21;65.11
64066;BME280;50318;54.760;9.408;2022-09-09T12:17:53;100557.19;;;23.27;65.45
64066;BME280;50318;54.760;9.408;2022-09-09T12:33:37;100566.28;;;23.07;65.82
64066;BME280;50318;54.760;9.408;2022-09-09T12:36:08;100570.50;;;23.00;65.91
64066;BME280;50318;54.760;9.408;2022-09-09T12:38:40;100567.28;;;22.96;66.58
64066;BME280;50318;54.760;9.408;2022-09-09T12:41:15;100552.84;;;22.92;66.78
64066;BME280;50318;54.760;9.408;2022-09-09T12:43:44;100562.84;;;23.01;67.00
64066;BME280;50318;54.760;9.408;2022-09-09T12:46:22;100558.09;;;23.09;66.95
64066;BME280;50318;54.760;9.408;2022-09-09T12:48:50;100563.75;;;23.16;67.07
64066;BME280;50318;54.760;9.408;2022-09-09T12:51:28;100554.06;;;23.17;67.06
64066;BME280;50318;54.760;9.408;2022-09-09T12:53:55;100555.81;;;23.20;67.14
64066;BME280;50318;54.760;9.408;2022-09-09T12:56:39;100556.34;;;23.19;65.98
64066;BME280;50318;54.760;9.408;2022-09-09T12:59:22;100560.44;;;23.18;65.99
64066;BME280;50318;54.760;9.408;2022-09-09T13:01:56;100543.47;;;23.03;66.05
64066;BME280;50318;54.760;9.408;2022-09-09T13:04:22;100554.41;;;23.14;66.41
64066;BME280;50318;54.760;9.408;2022-09-09T13:06:48;100548.94;;;23.21;67.00
64066;BME280;50318;54.760;9.408;2022-09-09T13:09:14;100542.25;;;23.24;65.77
64066;BME280;50318;54.760;9.408;2022-09-09T13:11:48;100545.47;;;23.28;65.92
64066;BME280;50318;54.760;9.408;2022-09-09T13:14:30;100535.91;;;23.24;66.13
64066;BME280;50318;54.760;9.408;2022-09-09T13:17:02;100556.44;;;23.26;65.67
64066;BME280;50318;54.760;9.408;2022-09-09T13:19:35;100542.69;;;23.15;63.82
64066;BME280;50318;54.760;9.408;2022-09-09T13:22:12;100534.97;;;23.08;65.70
64066;BME280;50318;54.760;9.408;2022-09-09T13:24:39;100545.53;;;23.02;65.32
64066;BME280;50318;54.760;9.408;2022-09-09T13:29:56;100554.13;;;22.78;65.95
64066;BME280;50318;54.760;9.408;2022-09-09T13:32:24;100564.44;;;22.70;65.36
64066;BME280;50318;54.760;9.408;2022-09-09T13:35:00;100571.00;;;22.59;66.29
64066;BME280;50318;54.760;9.408;2022-09-09T13:37:37;100570.97;;;22.46;66.06
64066;BME280;50318;54.760;9.408;2022-09-09T13:40:05;100571.53;;;22.31;66.75
64066;BME280;50318;54.760;9.408;2022-09-09T13:42:37;100568.69;;;22.18;67.25
64066;BME280;50318;54.760;9.408;2022-09-09T13:45:04;100576.63;;;22.14;67.55
64066;BME280;50318;54.760;9.408;2022-09-09T13:47:36;100573.25;;;22.02;68.33
64066;BME280;50318;54.760;9.408;2022-09-09T13:53:03;100587.16;;;21.89;67.95
64066;BME280;50318;54.760;9.408;2022-09-09T13:55:29;100577.06;;;21.86;68.68
64066;BME280;50318;54.760;9.408;2022-09-09T13:58:00;100567.50;;;21.81;69.24
64066;BME280;50318;54.760;9.408;2022-09-09T14:00:29;100558.72;;;21.90;69.05
64066;BME280;50318;54.760;9.408;2022-09-09T14:02:55;100568.69;;;22.18;69.96
64066;BME280;50318;54.760;9.408;2022-09-09T14:05:24;100554.44;;;22.34;70.44
64066;BME280;50318;54.760;9.408;2022-09-09T14:08:26;100558.53;;;22.73;69.41
64066;BME280;50318;54.760;9.408;2022-09-09T14:10:54;100556.06;;;22.96;69.87
64066;BME280;50318;54.760;9.408;2022-09-09T14:13:21;100558.63;;;23.20;68.42
64066;BME280;50318;54.760;9.408;2022-09-09T14:15:53;100555.56;;;23.32;66.87
64066;BME280;50318;54.760;9.408;2022-09-09T14:18:18;100557.47;;;23.37;65.92
64066;BME280;50318;54.760;9.408;2022-09-09T14:20:44;100558.44;;;23.39;65.82
64066;BME280;50318;54.760;9.408;2022-09-09T14:23:11;100551.34;;;23.38;66.50
64066;BME280;50318;54.760;9.408;2022-09-09T14:25:40;100539.72;;;23.34;65.84
64066;BME280;50318;54.760;9.408;2022-09-09T14:28:09;100548.66;;;23.33;65.66
64066;BME280;50318;54.760;9.408;2022-09-09T14:30:53;100543.63;;;23.31;65.97
64066;BME280;50318;54.760;9.408;2022-09-09T14:33:19;100544.78;;;23.36;66.07
64066;BME280;50318;54.760;9.408;2022-09-09T14:35:45;100534.47;;;23.31;65.79
64066;BME280;50318;54.760;9.408;2022-09-09T14:38:19;100541.22;;;23.35;66.42
64066;BME280;50318;54.760;9.408;2022-09-09T14:41:15;100554.88;;;23.39;66.53
64066;BME280;50318;54.760;9.408;2022-09-09T14:43:44;100563.63;;;23.35;65.40
64066;BME280;50318;54.760;9.408;2022-09-09T14:46:17;100557.94;;;23.27;65.64
64066;BME280;50318;54.760;9.408;2022-09-09T14:48:44;100550.00;;;23.18;65.26
64066;BME280;50318;54.760;9.408;2022-09-09T14:51:13;100562.91;;;23.21;65.79
64066;BME280;50318;54.760;9.408;2022-09-09T14:53:39;100571.53;;;23.23;65.50
64066;BME280;50318;54.760;9.408;2022-09-09T14:56:14;100563.13;;;23.23;66.01
64066;BME280;50318;54.760;9.408;2022-09-09T14:58:40;100578.06;;;23.26;66.38
64066;BME280;50318;54.760;9.408;2022-09-09T15:01:17;100564.91;;;23.34;66.64
64066;BME280;50318;54.760;9.408;2022-09-09T15:03:58;100559.94;;;23.40;67.02
64066;BME280;50318;54.760;9.408;2022-09-09T15:06:29;100565.78;;;23.42;65.78
64066;BME280;50318;54.760;9.408;2022-09-09T15:09:15;100563.94;;;23.45;66.72
64066;BME280;50318;54.760;9.408;2022-09-09T15:11:40;100559.38;;;23.42;65.84
64066;BME280;50318;54.760;9.408;2022-09-09T15:14:08;100566.53;;;23.43;66.16
64066;BME280;50318;54.760;9.408;2022-09-09T15:16:34;100564.25;;;23.41;65.83
64066;BME280;50318;54.760;9.408;2022-09-09T15:19:01;100554.25;;;23.33;64.00
64066;BME280;50318;54.760;9.408;2022-09-09T15:21:32;100556.53;;;23.34;62.80
64066;BME280;50318;54.760;9.408;2022-09-09T15:23:58;100544.72;;;23.28;65.30